createdAt,value
2023-03-16T00:02:39.074Z,81.9
2023-03-16T00:05:39.109Z,81.9
2023-03-16T00:08:39.288Z,82
2023-03-16T00:11:39.084Z,82
2023-03-16T00:14:39.080Z,82
2023-03-16T00:17:39.082Z,82.1
2023-03-16T00:20:39.091Z,82
2023-03-16T00:23:39.122Z,82.1
2023-03-16T00:26:39.093Z,82.2
2023-03-16T00:29:39.092Z,82.4
2023-03-16T00:32:39.119Z,82.5
2023-03-16T00:35:39.188Z,82.6
2023-03-16T00:38:39.133Z,82.8
2023-03-16T00:41:39.164Z,82.9
2023-03-16T00:44:39.152Z,82.9
2023-03-16T00:47:39.158Z,82.9
2023-03-16T00:50:39.174Z,83
2023-03-16T00:53:39.192Z,82.8
2023-03-16T00:56:39.187Z,82.9
2023-03-16T00:59:39.214Z,82.9
2023-03-16T01:02:39.192Z,82.8
2023-03-16T01:05:39.212Z,82.6
2023-03-16T01:08:39.222Z,82.4
2023-03-16T01:11:39.218Z,82.1
2023-03-16T01:14:39.222Z,81.8
2023-03-16T01:17:39.260Z,81.6
2023-03-16T01:20:39.243Z,81.5
2023-03-16T01:23:39.250Z,81.4
2023-03-16T01:26:39.241Z,81.2
2023-03-16T01:29:39.244Z,81.2
2023-03-16T01:32:39.295Z,81.3
2023-03-16T01:35:39.304Z,81.2
2023-03-16T01:38:39.270Z,80.9
2023-03-16T01:41:39.285Z,81.1
2023-03-16T01:44:39.276Z,81
2023-03-16T01:47:39.280Z,81.1
2023-03-16T01:50:39.278Z,81
2023-03-16T01:53:39.322Z,81.1
2023-03-16T01:56:39.288Z,81.1
2023-03-16T01:59:39.297Z,81.5
2023-03-16T02:02:39.294Z,81.6
2023-03-16T02:05:39.305Z,81.9
2023-03-16T02:08:39.338Z,82.2
2023-03-16T02:11:39.343Z,82.3
2023-03-16T02:14:39.327Z,82.3
2023-03-16T02:17:39.324Z,82.5
2023-03-16T02:20:39.326Z,82.9
2023-03-16T02:23:39.338Z,83.2
2023-03-16T02:26:39.344Z,83.7
2023-03-16T02:29:39.463Z,84
2023-03-16T02:32:39.371Z,84.3
2023-03-16T02:35:39.394Z,84.6
2023-03-16T02:38:39.366Z,85.1
2023-03-16T02:41:39.375Z,85.6
2023-03-16T02:44:39.373Z,85.8
2023-03-16T02:47:39.425Z,86
2023-03-16T02:50:39.378Z,86.2
2023-03-16T02:53:39.391Z,86.3
2023-03-16T02:56:39.378Z,86.2
2023-03-16T02:59:39.381Z,86.3
2023-03-16T03:02:39.382Z,86.5
2023-03-16T03:05:39.424Z,86.7
2023-03-16T03:08:39.563Z,87.1
2023-03-16T03:11:39.424Z,87.2
2023-03-16T03:14:39.419Z,87.5
2023-03-16T03:17:39.420Z,87.9
2023-03-16T03:20:39.418Z,88.1
2023-03-16T03:23:39.474Z,88.3
2023-03-16T03:26:39.442Z,88.6
2023-03-16T03:29:39.446Z,88.4
2023-03-16T03:32:39.482Z,88.4
2023-03-16T03:35:39.473Z,88.5
2023-03-16T03:38:39.457Z,88.6
2023-03-16T03:41:39.482Z,88.1
2023-03-16T03:44:39.453Z,87.7
2023-03-16T03:47:39.455Z,87.1
2023-03-16T03:50:39.458Z,86.6
2023-03-16T03:53:39.478Z,86.5
2023-03-16T03:56:39.474Z,86.4
2023-03-16T03:59:39.498Z,86.6
2023-03-16T04:02:39.594Z,87
2023-03-16T04:05:39.476Z,87.1
2023-03-16T04:08:39.499Z,87.2
2023-03-16T04:11:39.488Z,87.6
2023-03-16T04:14:39.486Z,87.9
2023-03-16T04:17:39.522Z,88.1
2023-03-16T04:20:39.492Z,88
2023-03-16T04:23:39.516Z,88.2
2023-03-16T04:26:39.502Z,88.3
2023-03-16T04:29:39.509Z,88.3
2023-03-16T04:32:39.666Z,88.5
2023-03-16T04:35:39.556Z,88.8
2023-03-16T04:38:39.532Z,88.9
2023-03-16T04:41:39.544Z,88.7
2023-03-16T04:44:39.533Z,88.8
2023-03-16T04:47:39.539Z,89
2023-03-16T04:50:39.544Z,89.2
2023-03-16T04:53:39.578Z,89.1
2023-03-16T04:56:39.548Z,89
2023-03-16T04:59:39.562Z,89.1
2023-03-16T05:02:39.561Z,89.2
2023-03-16T05:05:39.642Z,89.4
2023-03-16T05:08:39.781Z,89.6
2023-03-16T05:11:39.586Z,89.8
2023-03-16T05:14:39.574Z,89.8
2023-03-16T05:17:39.580Z,90
2023-03-16T05:20:39.582Z,90.2
2023-03-16T05:23:39.598Z,90.3
2023-03-16T05:26:39.597Z,90.3
2023-03-16T05:29:39.629Z,90.3
2023-03-16T05:32:39.625Z,90.1
2023-03-16T05:35:39.635Z,90.3
2023-03-16T05:38:39.638Z,90.3
2023-03-16T05:41:39.618Z,90.3
2023-03-16T05:44:39.635Z,90.5
2023-03-16T05:47:39.660Z,90.7
2023-03-16T05:50:39.636Z,90.8
2023-03-16T05:53:39.648Z,90.5
2023-03-16T05:56:39.649Z,89.8
2023-03-16T05:59:39.657Z,88.8
2023-03-16T06:02:39.694Z,87.4
2023-03-16T06:05:39.695Z,86.3
2023-03-16T06:08:39.691Z,85.1
2023-03-16T06:11:39.680Z,83.9
2023-03-16T06:14:39.687Z,82.8
2023-03-16T06:17:39.706Z,81.3
2023-03-16T06:20:39.694Z,79.6
2023-03-16T06:23:39.734Z,77.8
2023-03-16T06:26:39.709Z,76.1
2023-03-16T06:29:39.705Z,74.1
2023-03-16T06:32:39.722Z,72.3
2023-03-16T06:35:39.754Z,70.9
2023-03-16T06:38:39.747Z,69.5
2023-03-16T06:41:39.744Z,68.4
2023-03-16T06:44:39.720Z,67.3
2023-03-16T06:47:39.743Z,66.2
2023-03-16T06:50:39.733Z,65
2023-03-16T06:53:39.751Z,64.1
2023-03-16T06:56:39.742Z,62.9
2023-03-16T06:59:39.836Z,62.1
2023-03-16T07:02:39.760Z,61.1
2023-03-16T07:05:39.744Z,60.5
2023-03-16T07:08:39.766Z,60.1
2023-03-16T07:11:39.748Z,59
2023-03-16T07:14:39.763Z,57.8
2023-03-16T07:17:39.792Z,57
2023-03-16T07:20:39.767Z,56
2023-03-16T07:23:39.781Z,55.2
2023-03-16T07:26:39.780Z,55.1
2023-03-16T07:29:39.779Z,55
2023-03-16T07:32:39.807Z,54.5
2023-03-16T07:35:39.888Z,55
2023-03-16T07:38:39.813Z,54
2023-03-16T07:41:39.796Z,54.3
2023-03-16T07:44:39.806Z,54.1
2023-03-16T07:47:39.807Z,52.9
2023-03-16T07:50:39.807Z,52.5
2023-03-16T07:53:39.860Z,52.8
2023-03-16T07:56:48.601Z,53
2023-03-16T07:59:39.826Z,53.1
2023-03-16T08:02:39.880Z,53.4
2023-03-16T08:05:39.827Z,53
2023-03-16T08:08:39.845Z,52.1
2023-03-16T08:11:39.861Z,51.6
2023-03-16T08:14:39.847Z,51.7
2023-03-16T08:17:39.851Z,52.2
2023-03-16T08:20:39.849Z,51.5
2023-03-16T08:23:39.872Z,50.4
2023-03-16T08:26:39.860Z,49.5
2023-03-16T08:29:39.909Z,49
2023-03-16T08:32:40.100Z,49.3
2023-03-16T08:35:39.919Z,49.3
2023-03-16T08:38:39.928Z,47.7
2023-03-16T08:41:39.888Z,47.9
2023-03-16T08:44:39.881Z,46.5
2023-03-16T08:47:39.919Z,46
2023-03-16T08:50:39.892Z,44.7
2023-03-16T08:53:39.903Z,43.3
2023-03-16T08:56:39.904Z,43.4
2023-03-16T08:59:39.895Z,43.1
2023-03-16T09:02:39.906Z,41.9
2023-03-16T09:05:39.987Z,42.4
2023-03-16T09:08:39.951Z,41.6
2023-03-16T09:11:39.926Z,41.7
2023-03-16T09:14:39.935Z,40.9
2023-03-16T09:17:39.934Z,40.8
2023-03-16T09:20:40.182Z,40.3
2023-03-16T09:23:39.993Z,40.1
2023-03-16T09:26:40.044Z,40.3
2023-03-16T09:29:39.951Z,39.7
2023-03-16T09:32:39.976Z,38.9
2023-03-16T09:35:40.003Z,37.9
2023-03-16T09:38:39.987Z,38
2023-03-16T09:41:40.036Z,37.8
2023-03-16T09:44:39.980Z,37.3
2023-03-16T09:47:39.963Z,37.3
2023-03-16T09:50:48.015Z,36.2
2023-03-16T09:53:39.981Z,35.7
2023-03-16T09:56:39.975Z,35.4
2023-03-16T09:59:40.017Z,35.3
2023-03-16T10:02:39.979Z,35.6
2023-03-16T10:05:39.997Z,36
2023-03-16T10:08:40.003Z,32.7
2023-03-16T10:11:40.029Z,33.2
2023-03-16T10:14:40.047Z,32.3
2023-03-16T10:17:40.038Z,30.3
2023-03-16T10:20:40.003Z,32.1
2023-03-16T10:23:40.949Z,32.4
2023-03-16T10:26:40.011Z,31.9
2023-03-16T10:29:40.011Z,29.7
2023-03-16T10:32:40.074Z,30.2
2023-03-16T10:35:40.056Z,30.4
2023-03-16T10:38:40.059Z,30.6
2023-03-16T10:41:40.033Z,30.4
2023-03-16T10:44:40.054Z,31.3
2023-03-16T10:47:40.054Z,32.9
2023-03-16T10:50:40.044Z,30.5
2023-03-16T10:53:40.090Z,30.9
2023-03-16T10:56:40.058Z,31.4
2023-03-16T10:59:40.065Z,31.9
2023-03-16T11:02:40.073Z,30.1
2023-03-16T11:05:40.082Z,30.6
2023-03-16T11:08:40.088Z,32.2
2023-03-16T11:11:40.113Z,32.6
2023-03-16T11:14:40.098Z,32.7
2023-03-16T11:17:40.110Z,33.2
2023-03-16T11:20:40.113Z,32.9
2023-03-16T11:23:40.119Z,32.6
2023-03-16T11:26:40.111Z,33.1
2023-03-16T11:29:40.144Z,33.2
2023-03-16T11:32:40.195Z,34
2023-03-16T11:35:46.721Z,34.4
2023-03-16T11:38:40.145Z,34.2
2023-03-16T11:41:40.134Z,34.6
2023-03-16T11:44:40.140Z,33.1
2023-03-16T11:47:40.242Z,34.2
2023-03-16T11:50:40.151Z,33.9
2023-03-16T11:53:40.158Z,33.6
2023-03-16T11:56:40.175Z,32
2023-03-16T11:59:42.309Z,31.2
2023-03-16T12:02:40.316Z,32
2023-03-16T12:05:40.187Z,31.6
2023-03-16T12:08:40.179Z,31.9
2023-03-16T12:11:41.643Z,32.1
2023-03-16T12:14:40.173Z,31.3
2023-03-16T12:17:40.176Z,31.1
2023-03-16T12:20:40.190Z,33.1
2023-03-16T12:23:40.225Z,33
2023-03-16T12:26:40.194Z,33.2
2023-03-16T12:29:40.190Z,32.7
2023-03-16T12:32:40.253Z,33.1
2023-03-16T12:35:40.200Z,33.2
2023-03-16T12:38:40.216Z,33.1
2023-03-16T12:41:40.231Z,33.2
2023-03-16T12:44:40.213Z,33.8
2023-03-16T12:47:40.218Z,33.8
2023-03-16T12:50:40.422Z,34.4
2023-03-16T12:53:40.236Z,33.6
2023-03-16T12:56:40.235Z,32.9
2023-03-16T12:59:40.294Z,33.3
2023-03-16T13:02:40.236Z,32.3
2023-03-16T13:05:40.249Z,32.3
2023-03-16T13:08:40.264Z,32.8
2023-03-16T13:11:40.257Z,32.7
2023-03-16T13:14:40.262Z,32.2
2023-03-16T13:17:40.342Z,31.7
2023-03-16T13:20:40.258Z,32.3
2023-03-16T13:23:40.277Z,33.5
2023-03-16T13:26:40.269Z,32.3
2023-03-16T13:29:40.276Z,32.5
2023-03-16T13:32:40.298Z,31.3
2023-03-16T13:35:40.354Z,32.2
2023-03-16T13:38:40.308Z,33
2023-03-16T13:41:42.276Z,33.6
2023-03-16T13:44:40.310Z,32.2
2023-03-16T13:47:40.291Z,31.5
2023-03-16T13:50:40.299Z,31.5
2023-03-16T13:53:40.338Z,32.3
2023-03-16T13:56:40.296Z,31.6
2023-03-16T13:59:40.309Z,31.6
2023-03-16T14:02:40.424Z,32.2
2023-03-16T14:05:40.328Z,32.5
2023-03-16T14:08:40.335Z,32.4
2023-03-16T14:11:40.342Z,33.2
2023-03-16T14:14:40.319Z,33.3
2023-03-16T14:17:40.314Z,34.2
2023-03-16T14:20:41.338Z,34.4
2023-03-16T14:23:40.329Z,34.5
2023-03-16T14:26:40.324Z,35.4
2023-03-16T14:29:40.357Z,35.1
2023-03-16T14:32:40.371Z,34.8
2023-03-16T14:35:40.379Z,35.6
2023-03-16T14:38:40.361Z,35.4
2023-03-16T14:41:40.343Z,35.9
2023-03-16T14:44:40.354Z,36.4
2023-03-16T14:47:40.372Z,36.4
2023-03-16T14:50:40.352Z,36.5
2023-03-16T14:53:40.378Z,37.1
2023-03-16T14:56:40.397Z,37.2
2023-03-16T14:59:40.410Z,37.4
2023-03-16T15:02:40.478Z,37.2
2023-03-16T15:05:40.554Z,37.9
2023-03-16T15:08:40.445Z,38
2023-03-16T15:11:40.448Z,38.2
2023-03-16T15:14:40.455Z,38.2
2023-03-16T15:17:40.462Z,38.7
2023-03-16T15:20:40.461Z,39.1
2023-03-16T15:23:40.501Z,39.8
2023-03-16T15:26:40.466Z,40
2023-03-16T15:29:40.481Z,40.2
2023-03-16T15:32:40.500Z,40.8
2023-03-16T15:35:40.521Z,40.9
2023-03-16T15:38:40.507Z,41.4
2023-03-16T15:41:47.402Z,42.3
2023-03-16T15:44:40.503Z,42.8
2023-03-16T15:47:40.512Z,43.4
2023-03-16T15:50:40.518Z,43.9
2023-03-16T15:53:40.541Z,44.1
2023-03-16T15:56:51.200Z,44.7
2023-03-16T15:59:40.546Z,44.8
2023-03-16T16:02:40.533Z,44.7
2023-03-16T16:05:40.537Z,44.8
2023-03-16T16:08:40.554Z,45.4
2023-03-16T16:11:40.540Z,45.2
2023-03-16T16:14:40.550Z,45.5
2023-03-16T16:17:50.835Z,45.4
2023-03-16T16:20:40.643Z,45.7
2023-03-16T16:23:40.593Z,46.2
2023-03-16T16:26:51.891Z,46.6
2023-03-16T16:29:40.578Z,46.9
2023-03-16T16:32:40.595Z,47.3
2023-03-16T16:35:40.713Z,47.4
2023-03-16T16:38:40.621Z,47.6
2023-03-16T16:41:40.602Z,48
2023-03-16T16:44:40.591Z,48.4
2023-03-16T16:47:40.603Z,49
2023-03-16T16:50:40.602Z,49.3
2023-03-16T16:53:40.647Z,49.5
2023-03-16T16:56:40.607Z,50.2
2023-03-16T16:59:40.614Z,50.2
2023-03-16T17:02:42.124Z,50.6
2023-03-16T17:05:40.626Z,51
2023-03-16T17:08:40.665Z,51.4
2023-03-16T17:11:40.733Z,51.8
2023-03-16T17:14:40.655Z,52
2023-03-16T17:17:40.679Z,52.3
2023-03-16T17:20:40.692Z,52.8
2023-03-16T17:23:40.716Z,52.9
2023-03-16T17:26:40.738Z,53.1
2023-03-16T17:29:40.758Z,53.2
2023-03-16T17:32:40.780Z,53.2
2023-03-16T17:35:40.751Z,53.4
2023-03-16T17:38:40.760Z,53.5
2023-03-16T17:41:40.754Z,53.7
2023-03-16T17:44:40.758Z,53.9
2023-03-16T17:47:40.772Z,53.9
2023-03-16T17:50:40.759Z,54.1
2023-03-16T17:53:40.758Z,54.2
2023-03-16T17:56:40.745Z,54.2
2023-03-16T17:59:40.752Z,54.2
2023-03-16T18:02:40.757Z,54.2
2023-03-16T18:05:40.780Z,54.3
2023-03-16T18:08:40.756Z,53.8
2023-03-16T18:11:40.751Z,54.3
2023-03-16T18:14:40.761Z,54.5
2023-03-16T18:17:40.756Z,54.5
2023-03-16T18:20:40.760Z,54.5
2023-03-16T18:23:40.799Z,54.6
2023-03-16T18:26:40.760Z,54.2
2023-03-16T18:29:40.773Z,54.4
2023-03-16T18:32:40.796Z,54.4
2023-03-16T18:35:40.796Z,54.6
2023-03-16T18:38:40.954Z,54.8
2023-03-16T18:41:40.799Z,54.8
2023-03-16T18:44:40.770Z,54.6
2023-03-16T18:47:40.779Z,54.7
2023-03-16T18:50:40.779Z,54.8
2023-03-16T18:53:40.781Z,54.9
2023-03-16T18:56:40.774Z,55.2
2023-03-16T18:59:40.807Z,55.5
2023-03-16T19:02:40.793Z,55.7
2023-03-16T19:05:40.781Z,56
2023-03-16T19:08:40.801Z,56.2
2023-03-16T19:11:40.783Z,56.4
2023-03-16T19:14:40.787Z,56.6
2023-03-16T19:17:40.847Z,56.8
2023-03-16T19:20:40.788Z,56.8
2023-03-16T19:23:40.806Z,57.1
2023-03-16T19:26:40.794Z,57.4
2023-03-16T19:29:40.793Z,57.5
2023-03-16T19:32:40.848Z,57.8
2023-03-16T19:35:50.947Z,57.8
2023-03-16T19:38:40.984Z,58.1
2023-03-16T19:41:40.807Z,58.4
2023-03-16T19:44:40.813Z,58.7
2023-03-16T19:47:40.813Z,58.7
2023-03-16T19:50:40.821Z,58.7
2023-03-16T19:53:40.918Z,59
2023-03-16T19:56:40.825Z,59.3
2023-03-16T19:59:40.834Z,59.3
2023-03-16T20:02:40.839Z,59.5
2023-03-16T20:05:40.841Z,59.8
2023-03-16T20:08:40.859Z,60
2023-03-16T20:11:40.865Z,60.1
2023-03-16T20:14:40.856Z,60.5
2023-03-16T20:17:40.849Z,60.6
2023-03-16T20:20:40.854Z,60.9
2023-03-16T20:23:40.871Z,61
2023-03-16T20:26:40.862Z,61.2
2023-03-16T20:29:40.892Z,61.5
2023-03-16T20:32:40.886Z,61.5
2023-03-16T20:35:40.880Z,61.9
2023-03-16T20:38:40.893Z,62
2023-03-16T20:41:40.877Z,62.1
2023-03-16T20:44:40.877Z,62.3
2023-03-16T20:47:40.914Z,62.4
2023-03-16T20:50:40.882Z,62.6
2023-03-16T20:53:40.901Z,62.7
2023-03-16T20:56:40.890Z,63
2023-03-16T20:59:40.890Z,63.3
2023-03-16T21:02:40.897Z,63.2
2023-03-16T21:05:40.933Z,63.4
2023-03-16T21:08:40.915Z,63.3
2023-03-16T21:11:40.898Z,63.4
2023-03-16T21:14:40.899Z,63.6
2023-03-16T21:17:40.900Z,63.8
2023-03-16T21:20:40.909Z,64.1
2023-03-16T21:23:40.953Z,64
2023-03-16T21:26:40.917Z,64
2023-03-16T21:29:40.915Z,64
2023-03-16T21:32:40.926Z,64.1
2023-03-16T21:35:41.033Z,64.2
2023-03-16T21:38:40.932Z,64.3
2023-03-16T21:41:40.956Z,64.5
2023-03-16T21:44:40.916Z,64.6
2023-03-16T21:47:40.920Z,64.9
2023-03-16T21:50:40.941Z,64.9
2023-03-16T21:53:40.940Z,64.9
2023-03-16T21:56:40.925Z,65.2
2023-03-16T21:59:40.959Z,64.9
2023-03-16T22:02:41.068Z,65.2
2023-03-16T22:05:40.928Z,65.2
2023-03-16T22:08:40.937Z,65.1
2023-03-16T22:11:40.939Z,65
2023-03-16T22:14:40.932Z,64.9
2023-03-16T22:17:40.957Z,64.9
2023-03-16T22:20:40.936Z,64.9
2023-03-16T22:23:40.955Z,64.9
2023-03-16T22:26:40.973Z,64.9
2023-03-16T22:29:40.941Z,64.9
2023-03-16T22:32:40.950Z,65.1
2023-03-16T22:35:40.985Z,65.3
2023-03-16T22:38:40.973Z,65.2
2023-03-16T22:41:40.948Z,65
2023-03-16T22:44:40.951Z,64.7
2023-03-16T22:47:40.954Z,64.5
2023-03-16T22:50:40.953Z,64.2
2023-03-16T22:53:41.006Z,64.4
2023-03-16T22:56:40.965Z,64.4
2023-03-16T22:59:40.960Z,64.2
2023-03-16T23:02:40.965Z,64.2
2023-03-16T23:05:40.965Z,64.3
2023-03-16T23:08:40.974Z,64.3
2023-03-16T23:11:43.065Z,64.6
2023-03-16T23:14:40.974Z,64.4
2023-03-16T23:17:40.970Z,64.7
2023-03-16T23:20:40.978Z,65.2
2023-03-16T23:23:41.953Z,65.4
2023-03-16T23:26:40.979Z,65.8
2023-03-16T23:29:41.010Z,66.4
2023-03-16T23:32:41.039Z,67
2023-03-16T23:35:41.037Z,67.3
2023-03-16T23:38:41.008Z,67.7
2023-03-16T23:41:40.985Z,67.9
2023-03-16T23:44:41.003Z,68
2023-03-16T23:47:41.201Z,68.1
2023-03-16T23:50:40.988Z,68.2
2023-03-16T23:53:40.998Z,68.5
2023-03-16T23:56:40.983Z,68.7
2023-03-16T23:59:40.986Z,69
